Time;durP1;ratioP1;P1;durP2;ratioP2;P2;SDS_P1;SDS_P2;PMS_P1;PMS_P2;Temp;Humidity;BMP_temperature;BMP_pressure;BME280_temperature;BME280_humidity;BME280_pressure;Samples;Min_cycle;Max_cycle;Signal;HPM_P1;HPM_P2
2022/09/30 04:02:43;;;;;;;2.42;2.22;;;5.10;1.00;;;;;;5547488;23;20028;-72
2022/09/30 04:05:08;;;;;;;2.75;2.47;;;5.10;1.00;;;;;;4945898;28;20023;-72
2022/09/30 04:07:34;;;;;;;117.72;7.70;;;5.20;1.00;;;;;;4943638;29;20042;-72
2022/09/30 04:10:00;;;;;;;3.88;2.60;;;5.10;1.00;;;;;;4937334;28;20027;-71
2022/09/30 04:12:26;;;;;;;3.85;2.60;;;5.20;1.00;;;;;;4946704;29;20537;-72
2022/09/30 04:14:51;;;;;;;2.55;2.22;;;5.10;1.00;;;;;;4941159;29;20386;-72
2022/09/30 04:17:17;;;;;;;2.00;1.90;;;5.10;1.00;;;;;;4947159;29;20031;-71
2022/09/30 04:19:43;;;;;;;2.45;2.20;;;5.00;1.00;;;;;;4946649;29;20027;-71
2022/09/30 04:22:08;;;;;;;3.15;2.03;;;5.00;1.00;;;;;;4955359;29;20362;-73
2022/09/30 04:24:35;;;;;;;4.35;2.17;;;4.90;1.00;;;;;;4948372;29;20047;-72
2022/09/30 04:27:01;;;;;;;2.05;1.88;;;5.00;1.00;;;;;;4937868;29;20031;-73
2022/09/30 04:29:27;;;;;;;6.03;1.90;;;5.10;1.00;;;;;;4952068;29;20028;-72
2022/09/30 04:31:53;;;;;;;35.58;3.47;;;5.10;1.00;;;;;;4944136;29;20032;-72
2022/09/30 04:34:19;;;;;;;24.15;2.95;;;5.00;1.00;;;;;;4936832;29;20367;-72
2022/09/30 04:36:44;;;;;;;9.80;2.03;;;5.10;1.00;;;;;;4953998;29;20035;-73
2022/09/30 04:39:10;;;;;;;18.58;2.70;;;5.10;1.00;;;;;;4955533;29;20479;-72
2022/09/30 04:41:37;;;;;;;37.28;3.03;;;5.10;1.00;;;;;;4938485;29;20042;-72
2022/09/30 04:44:06;;;;;;;9.32;2.05;;;5.10;1.00;;;;;;4949516;29;20072;-71
2022/09/30 04:46:35;;;;;;;5.68;1.98;;;5.20;1.00;;;;;;4948413;29;20042;-72
2022/09/30 04:49:04;;;;;;;7.07;1.30;;;5.20;1.00;;;;;;4956967;29;20491;-72
2022/09/30 04:51:30;;;;;;;9.18;3.15;;;5.20;1.00;;;;;;4960459;28;20031;-71
2022/09/30 04:53:55;;;;;;;1.52;1.42;;;5.20;1.00;;;;;;4972706;28;20089;-73
2022/09/30 04:56:23;;;;;;;17.40;1.98;;;5.10;1.00;;;;;;4937028;29;20059;-72
2022/09/30 04:58:48;;;;;;;15.27;1.92;;;5.20;1.00;;;;;;4936149;29;20097;-71
2022/09/30 05:01:16;;;;;;;75.53;5.30;;;5.50;1.00;;;;;;4944122;28;20027;-71
2022/09/30 05:03:42;;;;;;;1.92;1.63;;;5.50;1.00;;;;;;4962498;28;20055;-71
2022/09/30 05:06:09;;;;;;;2.00;1.50;;;5.30;1.00;;;;;;4935551;29;20091;-71
2022/09/30 05:08:35;;;;;;;1.75;1.52;;;5.10;1.00;;;;;;4935602;29;20059;-72
2022/09/30 05:11:09;;;;;;;2.05;1.58;;;5.00;1.00;;;;;;4918686;29;20048;-71
2022/09/30 05:13:37;;;;;;;1.50;1.40;;;4.90;1.00;;;;;;4935859;29;20620;-71
2022/09/30 05:16:04;;;;;;;3.58;1.70;;;4.90;1.00;;;;;;4935723;29;20179;-71
2022/09/30 05:18:30;;;;;;;3.78;1.83;;;5.00;1.00;;;;;;4935119;29;20457;-71
2022/09/30 05:20:56;;;;;;;2.38;1.63;;;5.00;1.00;;;;;;4935465;29;20054;-71
2022/09/30 05:23:24;;;;;;;2.53;1.50;;;5.00;1.00;;;;;;4935278;29;20456;-71
2022/09/30 05:25:50;;;;;;;168.50;10.73;;;5.00;1.00;;;;;;4935188;29;20479;-71
2022/09/30 05:28:16;;;;;;;412.05;24.63;;;5.20;1.00;;;;;;4935324;29;20106;-71
2022/09/30 05:30:43;;;;;;;15.30;3.05;;;5.50;1.00;;;;;;4935228;29;20443;-71
2022/09/30 05:33:10;;;;;;;21.60;3.22;;;5.40;1.00;;;;;;4935135;29;20403;-71
2022/09/30 05:35:36;;;;;;;8.27;1.95;;;5.60;1.00;;;;;;4935036;29;20114;-70
2022/09/30 05:38:03;;;;;;;1.80;1.70;;;5.30;1.00;;;;;;4934977;29;20139;-71
2022/09/30 05:40:30;;;;;;;11.50;1.83;;;5.20;2.00;;;;;;4931406;29;20115;-71
2022/09/30 05:42:59;;;;;;;7.10;2.10;;;5.20;5.70;;;;;;4933412;29;20035;-71
2022/09/30 05:45:26;;;;;;;12.13;2.20;;;5.40;1.00;;;;;;4937071;29;20024;-71
2022/09/30 05:47:54;;;;;;;2.90;1.70;;;5.30;6.80;;;;;;4936577;29;20062;-70
2022/09/30 05:50:22;;;;;;;2.58;1.50;;;5.50;5.30;;;;;;4919571;29;20032;-70
2022/09/30 05:52:48;;;;;;;1.67;1.52;;;5.30;13.50;;;;;;4935019;29;20048;-70
2022/09/30 05:55:15;;;;;;;3.95;1.83;;;5.30;16.20;;;;;;4919609;29;20055;-70
2022/09/30 05:57:41;;;;;;;1.77;1.67;;;5.30;15.00;;;;;;4936862;29;20091;-69
2022/09/30 06:00:08;;;;;;;2.17;1.98;;;5.30;13.80;;;;;;4935735;29;20582;-71
2022/09/30 06:02:37;;;;;;;10.00;2.20;;;5.40;13.40;;;;;;4933791;29;20032;-70
2022/09/30 06:05:04;;;;;;;1.98;1.48;;;5.70;12.80;;;;;;4934389;29;20036;-71
2022/09/30 06:07:30;;;;;;;3.97;2.10;;;5.70;9.40;;;;;;4934397;29;20118;-71
2022/09/30 06:09:55;;;;;;;2.20;2.00;;;5.80;10.60;;;;;;4934649;29;20141;-71
2022/09/30 06:12:22;;;;;;;4.88;2.00;;;5.80;1.30;;;;;;4934560;29;20046;-71
2022/09/30 06:14:47;;;;;;;5.05;2.20;;;5.80;1.00;;;;;;4934479;29;20081;-70
2022/09/30 06:17:13;;;;;;;3.05;2.00;;;5.90;1.00;;;;;;4934379;29;20471;-70
2022/09/30 06:19:39;;;;;;;1.67;1.58;;;5.90;1.00;;;;;;4934442;29;20028;-71
2022/09/30 06:22:05;;;;;;;5.18;2.05;;;5.90;1.00;;;;;;4934591;29;20363;-70
2022/09/30 06:24:30;;;;;;;2.25;1.70;;;6.00;1.00;;;;;;4934142;29;20549;-70
2022/09/30 06:26:56;;;;;;;2.75;1.45;;;6.00;1.00;;;;;;4934136;29;20039;-71
2022/09/30 06:29:21;;;;;;;1.70;1.60;;;6.10;1.00;;;;;;4933908;29;20026;-70
2022/09/30 06:31:47;;;;;;;1.70;1.60;;;6.20;1.00;;;;;;4934168;29;20409;-70
2022/09/30 06:34:13;;;;;;;1.70;1.50;;;6.30;1.00;;;;;;4933995;29;20031;-70
2022/09/30 06:36:38;;;;;;;2.75;1.80;;;6.40;1.00;;;;;;4916981;29;20063;-71
2022/09/30 06:39:04;;;;;;;3.33;2.00;;;6.40;1.00;;;;;;4934027;29;20083;-71
2022/09/30 06:41:30;;;;;;;1.90;1.63;;;6.50;1.00;;;;;;4934065;29;20024;-70
2022/09/30 06:43:56;;;;;;;2.10;1.90;;;6.50;1.00;;;;;;4934193;29;20028;-70
2022/09/30 06:46:23;;;;;;;2.28;1.92;;;6.60;1.00;;;;;;4929907;29;20020;-70
2022/09/30 06:48:53;;;;;;;13.60;3.33;;;6.80;1.00;;;;;;4914230;29;20023;-71
2022/09/30 06:51:19;;;;;;;4.10;2.20;;;7.10;1.00;;;;;;4935171;29;20032;-71
2022/09/30 06:53:44;;;;;;;3.30;2.53;;;7.40;1.00;;;;;;4934083;29;20027;-72
2022/09/30 06:56:10;;;;;;;4.65;2.85;;;8.10;1.00;;;;;;4946823;29;20041;-72
2022/09/30 06:58:36;;;;;;;4.47;3.40;;;8.80;1.00;;;;;;4934127;29;20028;-71
2022/09/30 07:01:03;;;;;;;7.20;3.95;;;12.30;99.90;;;;;;4934270;29;20471;-70
2022/09/30 07:03:34;;;;;;;5.18;3.58;;;15.20;99.90;;;;;;4933903;29;20054;-72
2022/09/30 07:06:02;;;;;;;8.88;2.80;;;17.40;99.90;;;;;;4931455;29;20080;-73
2022/09/30 07:08:30;;;;;;;2.90;2.58;;;19.10;99.90;;;;;;4938720;29;20036;-71
2022/09/30 07:11:01;;;;;;;2.50;2.30;;;21.40;99.90;;;;;;4915621;29;20349;-72
2022/09/30 07:13:27;;;;;;;5.75;2.58;;;23.20;96.20;;;;;;4915104;29;20032;-71
2022/09/30 07:15:55;;;;;;;2.22;1.80;;;24.60;71.50;;;;;;4917408;29;20364;-72
2022/09/30 07:18:21;;;;;;;1.67;1.58;;;26.20;38.20;;;;;;4918321;29;20483;-72
2022/09/30 07:20:51;;;;;;;2.00;1.60;;;27.60;1.00;;;;;;4918593;29;20020;-72
2022/09/30 07:23:18;;;;;;;3.83;1.60;;;28.90;1.00;;;;;;4921319;29;20538;-71
2022/09/30 07:25:59;;;;;;;2.55;1.23;;;30.10;1.00;;;;;;4926644;29;20044;-71
2022/09/30 07:28:30;;;;;;;3.55;1.15;;;31.10;1.00;;;;;;4901443;29;20028;-72
2022/09/30 07:30:56;;;;;;;1.20;1.10;;;31.40;1.00;;;;;;4930052;29;20126;-72
2022/09/30 07:33:22;;;;;;;1.30;1.20;;;31.60;1.00;;;;;;4936696;29;20027;-72
2022/09/30 07:35:56;;;;;;;4.53;1.70;;;32.70;1.00;;;;;;4937267;29;20034;-72
2022/09/30 07:38:25;;;;;;;9.75;2.05;;;33.90;1.00;;;;;;4933284;29;20028;-72
2022/09/30 07:40:55;;;;;;;1.85;1.70;;;33.40;1.00;;;;;;4936926;29;20440;-72
2022/09/30 07:43:22;;;;;;;2.75;1.50;;;33.90;1.00;;;;;;4920066;29;20038;-72
2022/09/30 07:45:48;;;;;;;1.50;1.40;;;34.70;1.00;;;;;;4936616;29;20027;-72
2022/09/30 07:49:23;;;;;;;1.30;1.20;;;35.80;1.00;;;;;;4937009;29;20050;-72
2022/09/30 07:51:12;;;;;;;4.35;1.60;;;35.90;1.00;;;;;;4928573;29;20067;-73
2022/09/30 07:53:39;;;;;;;2.03;1.60;;;36.20;1.00;;;;;;4936847;29;20024;-72
2022/09/30 07:56:06;;;;;;;2.20;1.40;;;37.10;1.00;;;;;;4919896;29;20075;-72
2022/09/30 07:58:32;;;;;;;2.13;1.45;;;37.50;1.00;;;;;;4936957;29;20035;-72
2022/09/30 08:00:58;;;;;;;1.77;1.58;;;37.70;1.00;;;;;;4936743;29;20028;-72
2022/09/30 08:03:24;;;;;;;5.15;1.83;;;37.90;1.00;;;;;;4936397;29;20126;-72
2022/09/30 08:05:49;;;;;;;1.50;1.40;;;37.60;1.00;;;;;;4936514;29;20040;-73
2022/09/30 08:08:16;;;;;;;1.73;1.60;;;37.90;1.00;;;;;;4936826;29;20039;-73
2022/09/30 08:10:42;;;;;;;2.00;1.90;;;38.30;1.00;;;;;;4936605;29;20032;-73
2022/09/30 08:13:08;;;;;;;2.08;1.80;;;39.40;1.00;;;;;;4936592;29;20107;-73
2022/09/30 08:15:34;;;;;;;2.05;1.80;;;39.00;1.00;;;;;;4936500;29;20057;-73
2022/09/30 08:18:00;;;;;;;1.45;1.40;;;39.50;1.00;;;;;;4936411;29;20028;-73
2022/09/30 08:20:26;;;;;;;2.80;1.40;;;39.50;1.00;;;;;;4936125;29;20028;-73
2022/09/30 08:22:53;;;;;;;1.60;1.50;;;40.10;1.00;;;;;;4936372;29;20032;-73
2022/09/30 08:25:20;;;;;;;1.67;1.50;;;40.50;1.00;;;;;;4923652;29;20059;-73
2022/09/30 08:27:45;;;;;;;1.70;1.58;;;41.10;1.00;;;;;;4935681;29;20039;-73
2022/09/30 08:30:11;;;;;;;2.10;1.70;;;41.00;1.00;;;;;;4936162;29;20028;-73
2022/09/30 08:32:37;;;;;;;2.28;1.42;;;41.20;1.00;;;;;;4936055;29;20075;-73
2022/09/30 08:35:03;;;;;;;2.17;1.40;;;41.10;1.00;;;;;;4919007;29;20083;-73
2022/09/30 08:37:29;;;;;;;1.40;1.30;;;41.40;1.00;;;;;;4936196;29;20024;-74
2022/09/30 08:39:55;;;;;;;1.55;1.40;;;40.50;1.00;;;;;;4935881;29;20038;-74
2022/09/30 08:42:49;;;;;;;2.00;1.80;;;39.70;1.00;;;;;;4935930;29;20063;-73
2022/09/30 08:45:36;;;;;;;2.65;1.60;;;39.80;1.00;;;;;;4935798;29;20044;-73
2022/09/30 08:48:18;;;;;;;2.65;1.73;;;39.70;1.00;;;;;;4917435;29;20079;-73
2022/09/30 08:51:09;;;;;;;3.10;2.00;;;39.80;1.00;;;;;;4918674;29;20047;-74
2022/09/30 08:53:39;;;;;;;2.47;2.28;;;39.90;1.00;;;;;;4935159;29;20036;-73
2022/09/30 08:56:06;;;;;;;2.53;2.25;;;40.40;1.00;;;;;;4933502;29;20047;-73
2022/09/30 08:58:36;;;;;;;2.70;2.50;;;40.00;1.00;;;;;;4921612;29;20415;-74
2022/09/30 09:01:22;;;;;;;2.70;2.50;;;40.20;1.00;;;;;;4933011;29;20094;-74
2022/09/30 09:03:48;;;;;;;3.50;2.90;;;40.40;1.00;;;;;;4934861;29;20202;-74
2022/09/30 09:06:19;;;;;;;2.40;2.20;;;40.40;1.00;;;;;;4916338;29;20127;-74
2022/09/30 09:09:16;;;;;;;2.53;2.00;;;39.20;1.00;;;;;;4932666;29;20027;-73
2022/09/30 09:12:00;;;;;;;2.00;1.90;;;38.90;1.00;;;;;;4935413;29;20099;-73
2022/09/30 09:14:44;;;;;;;1.58;1.48;;;38.30;1.00;;;;;;4935429;29;20028;-74
2022/09/30 09:17:19;;;;;;;1.42;1.33;;;38.90;1.00;;;;;;4935252;29;20027;-74
2022/09/30 09:19:55;;;;;;;1.58;1.48;;;38.10;1.00;;;;;;4949393;29;20067;-75
2022/09/30 09:22:23;;;;;;;2.17;1.55;;;39.10;1.00;;;;;;4954486;29;20107;-75
2022/09/30 09:24:50;;;;;;;2.17;1.50;;;38.40;1.00;;;;;;4946596;29;20028;-74
2022/09/30 09:27:23;;;;;;;2.10;1.70;;;39.60;1.00;;;;;;4916200;29;20201;-74
2022/09/30 09:30:21;;;;;;;1.70;1.60;;;40.20;1.00;;;;;;4916056;29;20032;-73
2022/09/30 09:32:59;;;;;;;1.25;1.20;;;40.10;1.00;;;;;;4913748;29;20042;-74
2022/09/30 09:35:32;;;;;;;2.50;1.63;;;38.90;1.00;;;;;;4935077;29;20031;-74
2022/09/30 09:38:25;;;;;;;2.55;1.63;;;38.90;1.00;;;;;;4934371;29;20035;-71
2022/09/30 09:40:56;;;;;;;1.95;1.75;;;38.10;1.00;;;;;;4900162;29;20047;-74
2022/09/30 09:43:29;;;;;;;1.70;1.60;;;38.10;1.00;;;;;;4935017;29;20032;-74
2022/09/30 09:46:03;;;;;;;3.90;1.60;;;37.90;1.00;;;;;;4934737;29;20036;-74
2022/09/30 09:48:34;;;;;;;1.92;1.40;;;36.70;1.00;;;;;;4934956;29;20067;-75
2022/09/30 09:51:23;;;;;;;1.25;1.15;;;36.10;1.00;;;;;;4920533;29;20030;-74
2022/09/30 09:53:56;;;;;;;2.88;1.42;;;37.50;1.00;;;;;;4936225;29;20078;-74
2022/09/30 09:56:27;;;;;;;3.50;1.60;;;36.60;1.00;;;;;;4934728;29;20031;-74
2022/09/30 09:59:11;;;;;;;2.40;1.77;;;36.30;1.00;;;;;;4917784;29;20050;-74
2022/09/30 10:01:43;;;;;;;4.88;1.38;;;36.10;1.00;;;;;;4934836;29;20019;-74
2022/09/30 10:04:22;;;;;;;2.75;1.73;;;35.80;1.00;;;;;;4934353;29;20051;-74
2022/09/30 10:06:59;;;;;;;1.67;1.48;;;35.10;1.00;;;;;;4934888;29;20019;-74
2022/09/30 10:09:29;;;;;;;1.75;1.30;;;34.70;1.00;;;;;;4934588;29;20040;-75
2022/09/30 10:12:25;;;;;;;2.03;1.20;;;34.00;1.00;;;;;;4934583;29;20075;-74
2022/09/30 10:15:03;;;;;;;2.00;1.75;;;32.70;1.00;;;;;;4929417;29;20403;-73
2022/09/30 10:17:35;;;;;;;1.73;1.63;;;30.90;1.00;;;;;;4936975;29;20031;-73
2022/09/30 10:20:17;;;;;;;2.42;1.63;;;28.80;1.00;;;;;;4937870;29;20039;-73
2022/09/30 10:22:43;;;;;;;1.85;1.55;;;27.40;1.00;;;;;;4937999;29;20519;-72
2022/09/30 10:25:08;;;;;;;2.50;2.30;;;26.10;1.00;;;;;;4933874;29;20043;-73
2022/09/30 10:27:34;;;;;;;2.35;1.92;;;24.90;1.00;;;;;;4920861;29;20031;-73
2022/09/30 10:30:00;;;;;;;2.20;2.00;;;23.80;1.00;;;;;;4937725;29;20077;-72
2022/09/30 10:32:27;;;;;;;2.63;2.35;;;23.50;1.00;;;;;;4936719;29;20024;-73
2022/09/30 10:35:05;;;;;;;3.05;1.85;;;22.80;1.00;;;;;;4937020;29;20046;-73
2022/09/30 10:37:30;;;;;;;1.95;1.50;;;22.30;1.00;;;;;;4920366;29;20050;-72
2022/09/30 10:40:05;;;;;;;2.30;1.40;;;21.50;1.00;;;;;;4919988;29;20032;-73
2022/09/30 10:42:34;;;;;;;1.83;1.73;;;21.50;1.00;;;;;;4936657;29;20114;-74
2022/09/30 10:45:17;;;;;;;1.50;1.40;;;20.90;1.00;;;;;;4936483;29;20035;-72
2022/09/30 10:47:47;;;;;;;1.55;1.45;;;20.80;1.00;;;;;;4929981;29;20046;-73
2022/09/30 10:50:19;;;;;;;3.08;2.15;;;20.30;1.00;;;;;;4930071;29;20606;-73
2022/09/30 10:52:58;;;;;;;2.10;1.90;;;20.20;1.00;;;;;;4944758;29;20481;-73
2022/09/30 10:55:24;;;;;;;2.90;2.00;;;20.40;1.00;;;;;;4934871;29;20036;-72
2022/09/30 10:57:51;;;;;;;2.70;2.08;;;20.50;1.00;;;;;;4940644;29;20050;-72
2022/09/30 11:00:24;;;;;;;1.83;1.73;;;20.70;1.00;;;;;;4940575;29;20027;-73
2022/09/30 11:03:01;;;;;;;1.60;1.48;;;20.50;1.00;;;;;;4939775;29;20115;-74
2022/09/30 11:05:55;;;;;;;2.45;1.52;;;20.40;1.00;;;;;;4938583;29;20024;-74
2022/09/30 11:08:40;;;;;;;2.30;1.65;;;20.30;1.00;;;;;;4933752;29;20055;-74
2022/09/30 11:11:13;;;;;;;2.13;1.52;;;19.90;1.00;;;;;;4936846;29;20110;-74
2022/09/30 11:13:55;;;;;;;1.50;1.40;;;20.10;1.00;;;;;;4938744;29;20028;-74
2022/09/30 11:16:48;;;;;;;1.85;1.67;;;20.30;1.00;;;;;;4938748;29;20035;-74
2022/09/30 11:19:38;;;;;;;3.33;1.35;;;19.90;1.00;;;;;;4938014;29;20037;-75
2022/09/30 11:22:28;;;;;;;1.70;1.50;;;20.10;1.00;;;;;;4938051;29;20058;-74
2022/09/30 11:24:56;;;;;;;3.60;1.70;;;20.30;1.00;;;;;;4901742;29;20032;-74
2022/09/30 11:27:27;;;;;;;2.05;1.63;;;20.40;1.00;;;;;;4921695;29;20048;-75
2022/09/30 11:30:20;;;;;;;2.63;1.70;;;20.30;1.00;;;;;;4920796;29;20114;-74
2022/09/30 11:33:22;;;;;;;1.60;1.42;;;20.60;1.00;;;;;;4923395;29;20144;-74
2022/09/30 11:36:10;;;;;;;2.10;1.67;;;20.80;1.00;;;;;;4936780;29;20035;-74
2022/09/30 11:39:20;;;;;;;2.33;1.60;;;20.80;1.00;;;;;;4901625;29;20051;-74
2022/09/30 11:42:09;;;;;;;1.77;1.67;;;21.00;1.00;;;;;;4923609;29;20020;-75
2022/09/30 11:44:42;;;;;;;3.28;1.90;;;21.00;1.00;;;;;;4938387;29;20059;-74
2022/09/30 11:47:26;;;;;;;1.75;1.63;;;20.90;1.00;;;;;;4939195;29;20050;-76
2022/09/30 11:50:14;;;;;;;1.63;1.48;;;20.90;1.00;;;;;;4925298;29;20037;-75
2022/09/30 11:53:13;;;;;;;2.88;1.80;;;20.60;1.00;;;;;;4939824;29;20066;-75
2022/09/30 11:56:23;;;;;;;2.10;1.90;;;20.60;1.00;;;;;;4942774;29;20056;-76
2022/09/30 11:58:52;;;;;;;3.90;1.98;;;20.10;1.00;;;;;;4926426;29;20131;-75
2022/09/30 12:01:32;;;;;;;3.28;2.45;;;20.30;1.00;;;;;;4927153;29;20044;-75
2022/09/30 12:04:15;;;;;;;2.40;2.20;;;20.50;1.00;;;;;;4900663;29;20139;-75
2022/09/30 12:06:53;;;;;;;2.53;2.33;;;19.90;1.00;;;;;;4918010;29;20365;-75
2022/09/30 12:09:36;;;;;;;2.97;2.20;;;19.80;1.00;;;;;;4932555;29;20032;-75
2022/09/30 12:12:08;;;;;;;3.63;2.35;;;20.20;1.00;;;;;;4936884;29;20368;-74
2022/09/30 12:14:51;;;;;;;3.15;2.55;;;20.40;1.00;;;;;;4936904;29;20035;-74
2022/09/30 12:17:31;;;;;;;3.22;2.28;;;20.50;1.00;;;;;;4933542;29;20534;-75
2022/09/30 12:20:02;;;;;;;3.97;2.72;;;20.60;1.00;;;;;;4917390;29;20416;-75
2022/09/30 12:22:41;;;;;;;6.03;3.17;;;20.60;1.00;;;;;;4927843;29;20058;-76
2022/09/30 12:25:30;;;;;;;3.72;3.30;;;20.10;1.00;;;;;;4931934;29;20063;-77
2022/09/30 12:31:23;;;;;;;3.55;3.00;;;20.00;1.00;;;;;;4944658;29;20046;-77
2022/09/30 12:34:30;;;;;;;4.68;3.55;;;19.90;1.00;;;;;;4932310;29;20027;-77
2022/09/30 12:37:31;;;;;;;3.70;3.10;;;20.30;1.00;;;;;;4936162;29;20730;-77
2022/09/30 12:40:12;;;;;;;5.05;3.15;;;20.00;1.00;;;;;;4955292;29;20043;-78
2022/09/30 12:42:57;;;;;;;4.30;3.90;;;19.90;1.00;;;;;;4955422;29;20086;-78
2022/09/30 12:45:50;;;;;;;3.30;3.00;;;19.70;1.00;;;;;;4940530;29;20027;-78
2022/09/30 12:48:19;;;;;;;4.15;2.67;;;20.00;1.00;;;;;;4919184;29;20044;-77
2022/09/30 12:50:51;;;;;;;4.67;3.93;;;20.20;1.00;;;;;;4934495;29;20035;-77
2022/09/30 12:53:23;;;;;;;4.20;3.70;;;19.80;1.00;;;;;;4917376;29;20263;-78
2022/09/30 12:55:49;;;;;;;5.22;4.20;;;20.00;1.00;;;;;;4917132;29;20321;-78
2022/09/30 12:58:36;;;;;;;5.25;4.75;;;19.90;1.00;;;;;;4937474;29;20077;-78
2022/09/30 13:01:15;;;;;;;5.45;4.60;;;19.80;1.00;;;;;;4925834;29;20098;-78
2022/09/30 13:03:49;;;;;;;4.95;4.05;;;19.80;1.00;;;;;;4935559;29;20135;-77
2022/09/30 13:06:16;;;;;;;4.63;3.80;;;19.70;1.00;;;;;;4924884;29;20091;-78
2022/09/30 13:08:46;;;;;;;3.97;3.58;;;19.80;1.00;;;;;;4935329;29;20064;-77
2022/09/30 13:11:40;;;;;;;4.07;3.35;;;19.50;1.00;;;;;;4935337;29;20031;-77
2022/09/30 13:14:23;;;;;;;4.93;3.40;;;19.30;1.00;;;;;;4920059;29;20090;-78
2022/09/30 13:17:24;;;;;;;4.13;2.67;;;19.40;1.00;;;;;;4930362;29;20023;-78
2022/09/30 13:19:52;;;;;;;4.75;2.35;;;19.20;1.00;;;;;;4931669;29;20030;-77
2022/09/30 13:22:18;;;;;;;2.95;2.50;;;19.20;1.00;;;;;;4917684;29;20072;-77
2022/09/30 13:25:03;;;;;;;3.45;2.30;;;19.00;1.00;;;;;;4910564;29;20036;-77
2022/09/30 13:27:44;;;;;;;2.63;1.90;;;18.40;1.00;;;;;;4926148;29;20115;-78
2022/09/30 13:30:12;;;;;;;3.25;1.70;;;18.50;1.00;;;;;;4927485;29;20028;-78
2022/09/30 13:32:40;;;;;;;4.10;1.83;;;18.50;1.00;;;;;;4926942;29;20356;-78
2022/09/30 13:35:29;;;;;;;2.03;1.60;;;18.30;1.00;;;;;;4918239;29;20122;-77
2022/09/30 13:38:32;;;;;;;2.58;1.58;;;18.10;1.00;;;;;;4935567;29;20032;-77
2022/09/30 13:41:04;;;;;;;1.40;1.30;;;18.20;1.00;;;;;;4916322;29;20115;-75
2022/09/30 13:43:52;;;;;;;1.55;0.90;;;18.50;1.00;;;;;;4916365;29;20032;-75
2022/09/30 13:46:26;;;;;;;2.85;1.10;;;18.70;1.00;;;;;;4906893;29;20020;-75
2022/09/30 13:49:18;;;;;;;4.20;1.15;;;18.60;1.00;;;;;;4916304;29;20407;-75
2022/09/30 13:51:44;;;;;;;1.85;1.23;;;18.60;1.00;;;;;;4888850;29;20040;-75
2022/09/30 13:54:39;;;;;;;1.55;1.10;;;18.40;1.00;;;;;;4916342;29;20024;-75
2022/09/30 13:57:06;;;;;;;1.42;1.13;;;18.10;1.00;;;;;;4915952;29;20055;-76
2022/09/30 13:59:40;;;;;;;2.38;1.25;;;17.80;1.00;;;;;;4899078;29;20064;-75
2022/09/30 14:02:12;;;;;;;1.25;1.15;;;17.70;1.00;;;;;;4913935;29;20024;-76
2022/09/30 14:05:14;;;;;;;2.10;1.20;;;17.70;1.00;;;;;;4934809;29;20135;-76
2022/09/30 14:08:08;;;;;;;2.17;0.82;;;17.80;1.00;;;;;;4924371;29;20027;-76
2022/09/30 14:11:10;;;;;;;2.78;1.15;;;18.10;1.00;;;;;;4934861;29;20051;-76
2022/09/30 14:13:50;;;;;;;1.25;1.08;;;18.70;1.00;;;;;;4931829;29;20502;-76
2022/09/30 14:16:46;;;;;;;0.85;0.85;;;19.10;1.00;;;;;;4934776;29;20028;-76
2022/09/30 14:19:34;;;;;;;1.05;0.80;;;19.00;1.00;;;;;;4915766;29;20086;-76
2022/09/30 14:22:05;;;;;;;0.82;0.82;;;19.10;1.00;;;;;;4930871;29;20023;-77
2022/09/30 14:24:38;;;;;;;1.95;1.10;;;18.40;1.00;;;;;;4935612;29;20027;-75
2022/09/30 14:27:03;;;;;;;3.45;1.00;;;17.80;1.00;;;;;;4919891;29;20036;-76
2022/09/30 14:29:35;;;;;;;1.70;1.10;;;17.60;1.00;;;;;;4919980;29;20423;-76
2022/09/30 14:32:19;;;;;;;1.63;1.20;;;17.70;1.00;;;;;;4919675;29;20440;-76
2022/09/30 14:34:47;;;;;;;0.95;0.95;;;17.70;1.00;;;;;;4936350;29;20035;-76
2022/09/30 14:37:22;;;;;;;1.15;1.10;;;17.50;1.00;;;;;;4938696;29;20067;-76
2022/09/30 14:39:48;;;;;;;2.80;1.20;;;17.30;1.00;;;;;;4938591;29;20071;-76
2022/09/30 14:42:23;;;;;;;2.53;1.30;;;17.40;1.00;;;;;;4938479;29;20020;-75
2022/09/30 14:44:50;;;;;;;2.42;1.38;;;17.40;1.00;;;;;;4930027;29;20042;-76
2022/09/30 14:47:16;;;;;;;1.30;1.20;;;17.70;1.00;;;;;;4937119;29;20059;-75
2022/09/30 14:49:42;;;;;;;2.80;1.38;;;17.60;1.00;;;;;;4938235;29;20027;-76
2022/09/30 14:52:35;;;;;;;2.70;1.42;;;17.80;1.00;;;;;;4927543;29;20489;-75
2022/09/30 14:55:03;;;;;;;2.17;1.50;;;17.80;1.00;;;;;;4929632;29;20152;-76
2022/09/30 14:57:28;;;;;;;6.68;2.08;;;17.60;1.00;;;;;;4938423;29;20023;-76
2022/09/30 15:00:18;;;;;;;2.90;1.70;;;17.70;1.00;;;;;;4932632;29;20031;-76
2022/09/30 15:02:45;;;;;;;2.75;1.80;;;17.60;1.00;;;;;;4927834;29;20071;-76
2022/09/30 15:05:14;;;;;;;2.38;1.60;;;17.30;1.00;;;;;;4956911;28;20105;-76
2022/09/30 15:07:40;;;;;;;3.42;2.20;;;17.10;1.00;;;;;;4939831;29;20478;-76
2022/09/30 15:10:06;;;;;;;4.30;2.40;;;17.10;1.00;;;;;;4955374;29;20034;-75
2022/09/30 15:12:37;;;;;;;5.53;2.53;;;17.20;1.00;;;;;;4938178;29;20167;-76
2022/09/30 15:15:21;;;;;;;3.90;2.50;;;17.30;1.00;;;;;;4922101;29;20106;-75
2022/09/30 15:17:47;;;;;;;3.53;3.17;;;17.30;1.00;;;;;;4957140;29;20415;-75
2022/09/30 15:20:32;;;;;;;3.60;2.90;;;17.20;1.00;;;;;;4954662;29;20034;-75
2022/09/30 15:23:06;;;;;;;4.93;3.25;;;17.40;1.00;;;;;;4937688;29;20035;-76
2022/09/30 15:25:32;;;;;;;4.13;3.35;;;17.50;1.00;;;;;;4937160;29;20052;-76
2022/09/30 15:27:58;;;;;;;4.72;3.50;;;17.40;1.00;;;;;;4937480;29;20024;-76
2022/09/30 15:30:28;;;;;;;5.90;3.47;;;17.20;1.00;;;;;;4937661;29;20028;-76
2022/09/30 15:33:01;;;;;;;4.25;3.78;;;17.00;1.00;;;;;;4937464;29;20035;-76
2022/09/30 15:35:28;;;;;;;4.07;3.60;;;16.90;1.00;;;;;;4937542;29;20028;-76
2022/09/30 15:38:08;;;;;;;4.70;3.70;;;16.60;1.00;;;;;;4937364;29;20460;-76
2022/09/30 15:40:48;;;;;;;5.20;3.42;;;16.70;1.00;;;;;;4920171;29;20039;-75
2022/09/30 15:43:15;;;;;;;;;;;16.70;1.00;;;;;;4938291;29;20028;-75
2022/09/30 15:45:47;;;;;;;5.53;4.90;;;16.70;1.00;;;;;;4937184;29;19922;-76
2022/09/30 15:48:24;;;;;;;6.47;3.95;;;16.80;1.00;;;;;;4920421;29;20035;-76
2022/09/30 15:50:55;;;;;;;5.13;3.63;;;16.90;1.00;;;;;;4937228;29;20039;-76
2022/09/30 15:53:30;;;;;;;4.18;3.40;;;16.80;1.00;;;;;;4915159;29;20075;-76
2022/09/30 15:55:57;;;;;;;4.40;3.97;;;16.70;1.00;;;;;;4932774;29;20027;-76
2022/09/30 15:58:38;;;;;;;5.20;4.15;;;16.40;1.00;;;;;;4937160;29;20042;-76
2022/09/30 16:01:36;;;;;;;6.80;4.07;;;16.20;1.00;;;;;;4936874;29;20026;-76
2022/09/30 16:04:14;;;;;;;5.47;3.90;;;15.90;1.00;;;;;;4936844;29;20067;-76
2022/09/30 16:06:39;;;;;;;5.13;4.18;;;15.80;1.00;;;;;;4936618;29;20345;-76
2022/09/30 16:09:19;;;;;;;4.22;3.83;;;15.60;1.00;;;;;;4936602;29;20030;-76
2022/09/30 16:12:05;;;;;;;4.78;4.07;;;15.60;1.00;;;;;;4937085;29;20107;-76
2022/09/30 16:14:47;;;;;;;5.90;4.63;;;15.60;1.00;;;;;;4937453;29;20079;-76
2022/09/30 16:17:22;;;;;;;4.30;3.90;;;15.50;1.00;;;;;;4936984;29;20475;-76
2022/09/30 16:19:58;;;;;;;6.13;4.25;;;15.30;1.00;;;;;;4936758;29;20101;-76
2022/09/30 16:22:35;;;;;;;5.75;3.78;;;15.00;1.00;;;;;;4919859;29;20115;-76
2022/09/30 16:25:12;;;;;;;5.03;3.97;;;14.90;1.00;;;;;;4919218;29;20064;-75
2022/09/30 16:27:38;;;;;;;4.70;4.00;;;14.80;1.00;;;;;;4923107;29;20028;-76
2022/09/30 16:30:05;;;;;;;4.72;3.90;;;14.70;1.00;;;;;;4917715;29;20039;-76
2022/09/30 16:32:37;;;;;;;6.15;4.65;;;14.80;1.00;;;;;;4935953;29;20016;-76
2022/09/30 16:35:04;;;;;;;5.90;3.97;;;14.70;1.00;;;;;;4936465;29;20027;-76
2022/09/30 16:37:30;;;;;;;6.13;3.95;;;14.50;1.00;;;;;;4936735;29;20483;-75
2022/09/30 16:40:07;;;;;;;5.00;4.15;;;14.40;1.00;;;;;;4929325;29;20028;-75
2022/09/30 16:42:33;;;;;;;5.10;4.38;;;14.10;1.00;;;;;;4919244;29;20067;-75
2022/09/30 16:44:59;;;;;;;4.95;4.45;;;14.00;1.00;;;;;;4932929;29;20028;-75
2022/09/30 16:47:25;;;;;;;6.38;5.15;;;13.90;1.00;;;;;;4935804;29;20537;-75
2022/09/30 16:49:51;;;;;;;7.60;5.00;;;13.80;1.00;;;;;;4935448;29;20024;-76
2022/09/30 16:52:16;;;;;;;5.43;4.40;;;13.70;1.00;;;;;;4918071;29;20031;-76
2022/09/30 16:54:42;;;;;;;5.22;4.72;;;13.60;1.00;;;;;;4919056;29;20127;-75
2022/09/30 16:57:11;;;;;;;6.00;4.78;;;13.40;1.00;;;;;;4922824;29;20032;-75
2022/09/30 16:59:36;;;;;;;5.22;4.38;;;13.30;1.00;;;;;;4936214;29;20364;-76
2022/09/30 17:02:03;;;;;;;8.40;4.40;;;13.20;1.00;;;;;;4919468;29;20047;-76
2022/09/30 17:04:32;;;;;;;4.38;3.90;;;13.10;1.00;;;;;;4935630;29;20098;-76
2022/09/30 17:06:57;;;;;;;9.05;5.35;;;13.00;1.00;;;;;;4936246;29;20031;-76
2022/09/30 17:09:24;;;;;;;6.55;4.63;;;12.90;1.00;;;;;;4936098;29;20023;-77
2022/09/30 17:11:52;;;;;;;7.90;4.05;;;12.80;1.00;;;;;;4935824;29;20035;-77
2022/09/30 17:14:18;;;;;;;3.58;3.28;;;12.70;1.00;;;;;;4940032;29;20335;-77
2022/09/30 17:16:45;;;;;;;4.53;2.95;;;12.60;1.00;;;;;;4955713;29;20086;-77
2022/09/30 17:19:11;;;;;;;4.25;3.20;;;12.60;1.00;;;;;;4916917;29;20028;-77
2022/09/30 17:21:36;;;;;;;5.93;3.53;;;12.50;1.00;;;;;;4929675;29;20032;-77
2022/09/30 17:24:03;;;;;;;3.70;2.97;;;12.50;1.00;;;;;;4936313;29;20040;-77
2022/09/30 17:26:28;;;;;;;3.25;2.92;;;12.50;1.00;;;;;;4932515;29;20783;-77
2022/09/30 17:28:55;;;;;;;4.47;3.00;;;12.40;1.00;;;;;;4928633;29;20167;-77
2022/09/30 17:31:20;;;;;;;3.35;2.92;;;12.40;1.00;;;;;;4917705;29;20480;-77
2022/09/30 17:33:46;;;;;;;6.75;3.47;;;12.30;1.00;;;;;;4917586;29;20039;-76